createdAt,value
2023-07-03T00:00:36.668Z,12.14
2023-07-03T00:03:05.393Z,11.88
2023-07-03T00:05:34.172Z,11.71
2023-07-03T00:08:02.294Z,11.58
2023-07-03T00:10:31.906Z,11.44
2023-07-03T00:13:00.607Z,11.41
2023-07-03T00:15:29.605Z,11.29
2023-07-03T00:17:58.736Z,11.23
2023-07-03T00:20:30.197Z,11.06
2023-07-03T00:22:58.852Z,10.97
2023-07-03T00:25:28.110Z,10.90
2023-07-03T00:27:56.786Z,10.92
2023-07-03T00:30:25.441Z,10.94
2023-07-03T00:32:54.212Z,10.95
2023-07-03T00:35:23.232Z,10.99
2023-07-03T00:37:52.003Z,11.02
2023-07-03T00:40:20.740Z,11.07
2023-07-03T00:42:54.113Z,11.11
2023-07-03T00:45:22.960Z,11.17
2023-07-03T00:47:52.190Z,11.19
2023-07-03T00:50:21.640Z,11.19
2023-07-03T00:52:55.802Z,11.22
2023-07-03T00:55:25.258Z,11.16
2023-07-03T00:57:53.975Z,11.15
2023-07-03T01:00:28.047Z,11.14
2023-07-03T01:03:07.034Z,11.13
2023-07-03T01:05:45.678Z,11.12
2023-07-03T01:08:14.953Z,11.13
2023-07-03T01:10:44.433Z,11.13
2023-07-03T01:13:17.981Z,11.08
2023-07-03T01:15:47.951Z,11.07
2023-07-03T01:18:17.833Z,11.04
2023-07-03T01:21:10.352Z,11.01
2023-07-03T01:23:56.506Z,11.00
2023-07-03T01:26:27.938Z,10.92
2023-07-03T01:29:00.616Z,11.05
2023-07-03T01:31:32.977Z,11.03
2023-07-03T01:34:03.764Z,11.01
2023-07-03T01:36:33.905Z,11.06
2023-07-03T01:39:05.407Z,11.08
2023-07-03T01:41:34.417Z,11.17
2023-07-03T01:44:03.150Z,11.28
2023-07-03T01:46:31.888Z,11.31
2023-07-03T01:49:00.654Z,11.33
2023-07-03T01:51:40.151Z,11.38
2023-07-03T01:54:17.631Z,11.47
2023-07-03T01:56:52.151Z,11.46
2023-07-03T01:59:27.180Z,11.49
2023-07-03T02:02:07.729Z,11.54
2023-07-03T02:05:00.322Z,11.69
2023-07-03T02:07:31.730Z,11.72
2023-07-03T02:10:01.426Z,11.83
2023-07-03T02:12:29.970Z,11.88
2023-07-03T02:15:04.818Z,11.88
2023-07-03T02:17:33.511Z,11.96
2023-07-03T02:20:02.108Z,12.02
2023-07-03T02:22:31.192Z,12.03
2023-07-03T02:24:59.831Z,12.02
2023-07-03T02:27:28.413Z,12.05
2023-07-03T02:29:57.164Z,12.07
2023-07-03T02:32:25.751Z,12.08
2023-07-03T02:34:54.373Z,11.95
2023-07-03T02:37:23.082Z,11.95
2023-07-03T02:39:51.707Z,11.97
2023-07-03T02:42:20.310Z,11.99
2023-07-03T02:44:48.995Z,11.99
2023-07-03T02:47:17.703Z,11.89
2023-07-03T02:49:46.471Z,11.83
2023-07-03T02:52:15.444Z,11.77
2023-07-03T02:54:43.507Z,11.73
2023-07-03T02:57:12.039Z,11.78
2023-07-03T02:59:40.779Z,11.76
2023-07-03T03:02:09.464Z,11.73
2023-07-03T03:04:38.242Z,11.76
2023-07-03T03:07:07.034Z,11.82
2023-07-03T03:09:35.975Z,11.75
2023-07-03T03:12:04.631Z,11.77
2023-07-03T03:14:33.221Z,11.73
2023-07-03T03:17:02.265Z,11.73
2023-07-03T03:19:30.946Z,11.65
2023-07-03T03:21:59.634Z,11.68
2023-07-03T03:24:29.311Z,11.62
2023-07-03T03:26:57.954Z,11.63
2023-07-03T03:29:26.682Z,11.62
2023-07-03T03:31:55.433Z,11.58
2023-07-03T03:34:24.049Z,11.57
2023-07-03T03:36:52.663Z,11.56
2023-07-03T03:39:21.336Z,11.59
2023-07-03T03:41:49.979Z,11.65
2023-07-03T03:44:18.609Z,11.66
2023-07-03T03:46:47.298Z,11.69
2023-07-03T03:49:16.018Z,11.78
2023-07-03T03:51:44.674Z,11.74
2023-07-03T03:54:13.485Z,11.80
2023-07-03T03:56:42.078Z,11.86
2023-07-03T03:59:10.777Z,11.86
2023-07-03T04:01:38.812Z,11.80
2023-07-03T04:04:07.585Z,11.75
2023-07-03T04:06:37.955Z,11.78
2023-07-03T04:09:07.518Z,11.77
2023-07-03T04:11:37.131Z,11.71
2023-07-03T04:14:05.895Z,11.71
2023-07-03T04:16:35.138Z,11.73
2023-07-03T04:19:04.536Z,11.74
2023-07-03T04:21:33.437Z,11.77
2023-07-03T04:24:02.072Z,11.79
2023-07-03T04:26:30.557Z,11.80
2023-07-03T04:28:59.192Z,11.78
2023-07-03T04:31:28.137Z,11.82
2023-07-03T04:33:56.760Z,11.77
2023-07-03T04:36:25.469Z,11.71
2023-07-03T04:38:59.900Z,11.77
2023-07-03T04:41:32.012Z,11.76
2023-07-03T04:44:03.561Z,11.78
2023-07-03T04:46:32.408Z,11.91
2023-07-03T04:49:06.914Z,12.03
2023-07-03T04:51:35.617Z,12.08
2023-07-03T04:54:05.950Z,12.13
2023-07-03T04:56:36.373Z,12.18
2023-07-03T04:59:04.813Z,12.25
2023-07-03T05:01:33.614Z,12.17
2023-07-03T05:04:02.380Z,12.12
2023-07-03T05:06:31.879Z,12.16
2023-07-03T05:09:00.585Z,12.23
2023-07-03T05:11:29.326Z,12.35
2023-07-03T05:13:58.596Z,12.32
2023-07-03T05:16:27.308Z,12.26
2023-07-03T05:18:56.017Z,12.27
2023-07-03T05:21:25.190Z,12.35
2023-07-03T05:23:53.771Z,12.35
2023-07-03T05:26:22.346Z,12.33
2023-07-03T05:28:50.896Z,12.27
2023-07-03T05:31:23.709Z,12.24
2023-07-03T05:33:53.125Z,12.20
2023-07-03T05:36:21.812Z,12.15
2023-07-03T05:38:50.516Z,12.23
2023-07-03T05:41:19.093Z,12.24
2023-07-03T05:43:47.800Z,12.14
2023-07-03T05:46:17.925Z,12.14
2023-07-03T05:48:47.319Z,12.03
2023-07-03T05:51:16.020Z,12.01
2023-07-03T05:53:44.602Z,11.98
2023-07-03T05:56:13.162Z,11.92
2023-07-03T05:58:41.744Z,11.77
2023-07-03T06:01:10.961Z,11.66
2023-07-03T06:03:39.755Z,11.61
2023-07-03T06:06:08.773Z,11.54
2023-07-03T06:08:37.468Z,11.51
2023-07-03T06:11:06.361Z,11.46
2023-07-03T06:13:35.015Z,11.50
2023-07-03T06:16:03.638Z,11.49
2023-07-03T06:18:32.277Z,11.50
2023-07-03T06:21:01.032Z,11.44
2023-07-03T06:23:29.491Z,11.48
2023-07-03T06:25:58.383Z,11.54
2023-07-03T06:28:26.968Z,11.54
2023-07-03T06:30:55.561Z,11.50
2023-07-03T06:33:24.297Z,11.45
2023-07-03T06:35:53.294Z,11.42
2023-07-03T06:38:22.235Z,11.36
2023-07-03T06:41:03.390Z,11.27
2023-07-03T06:43:32.040Z,11.34
2023-07-03T06:46:01.497Z,11.28
2023-07-03T06:48:30.106Z,11.24
2023-07-03T06:51:09.781Z,11.23
2023-07-03T06:53:38.387Z,11.21
2023-07-03T06:56:08.400Z,11.21
2023-07-03T06:58:37.908Z,11.18
2023-07-03T07:01:11.582Z,11.18
2023-07-03T07:03:41.340Z,11.18
2023-07-03T07:06:18.177Z,11.12
2023-07-03T07:08:47.482Z,11.18
2023-07-03T07:11:20.258Z,11.19
2023-07-03T07:13:50.559Z,11.20
2023-07-03T07:16:27.784Z,11.20
2023-07-03T07:19:02.981Z,11.20
2023-07-03T07:21:36.531Z,11.19
2023-07-03T07:24:15.614Z,11.21
2023-07-03T07:26:44.692Z,11.21
2023-07-03T07:29:13.518Z,11.25
2023-07-03T07:31:42.682Z,11.22
2023-07-03T07:34:13.201Z,11.27
2023-07-03T07:36:43.084Z,11.25
2023-07-03T07:39:11.846Z,11.24
2023-07-03T07:41:40.456Z,11.25
2023-07-03T07:44:09.433Z,11.28
2023-07-03T07:46:39.057Z,11.28
2023-07-03T07:49:08.027Z,11.35
2023-07-03T07:51:36.644Z,11.43
2023-07-03T07:54:05.784Z,11.52
2023-07-03T07:56:34.655Z,11.52
2023-07-03T07:59:03.453Z,11.54
2023-07-03T08:01:32.128Z,11.57
2023-07-03T08:04:01.100Z,11.65
2023-07-03T08:06:30.070Z,11.75
2023-07-03T08:08:58.701Z,11.82
2023-07-03T08:11:30.931Z,11.71
2023-07-03T08:13:59.576Z,11.84
2023-07-03T08:16:28.258Z,11.80
2023-07-03T08:18:57.834Z,11.81
2023-07-03T08:21:26.096Z,11.77
2023-07-03T08:23:54.641Z,11.92
2023-07-03T08:26:25.776Z,12.00
2023-07-03T08:28:54.499Z,11.91
2023-07-03T08:31:23.035Z,11.97
2023-07-03T08:33:51.800Z,12.03
2023-07-03T08:38:52.444Z,11.96
2023-07-03T08:41:21.850Z,11.91
2023-07-03T08:43:53.969Z,12.04
2023-07-03T08:46:29.515Z,11.88
2023-07-03T08:49:03.835Z,11.86
2023-07-03T08:51:35.802Z,12.00
2023-07-03T08:54:20.949Z,11.91
2023-07-03T08:56:51.160Z,11.86
2023-07-03T08:59:19.887Z,11.86
2023-07-03T09:02:11.912Z,11.79
2023-07-03T09:04:44.962Z,11.94
2023-07-03T09:07:21.488Z,11.81
2023-07-03T09:10:23.007Z,11.81
2023-07-03T09:13:09.758Z,11.85
2023-07-03T09:15:45.947Z,11.84
2023-07-03T09:18:18.971Z,11.79
2023-07-03T09:20:48.708Z,11.72
2023-07-03T09:23:34.584Z,11.70
2023-07-03T09:26:14.547Z,11.71
2023-07-03T09:28:45.254Z,11.67
2023-07-03T09:31:14.879Z,11.64
2023-07-03T09:33:44.265Z,11.60
2023-07-03T09:36:37.788Z,11.59
2023-07-03T09:39:19.754Z,11.63
2023-07-03T09:41:48.680Z,11.60
2023-07-03T09:44:23.263Z,11.63
2023-07-03T09:46:52.720Z,11.59
2023-07-03T09:49:32.228Z,11.57
2023-07-03T09:52:03.254Z,11.57
2023-07-03T09:54:34.322Z,11.60
2023-07-03T09:57:07.889Z,11.50
2023-07-03T09:59:38.857Z,11.47
2023-07-03T10:07:22.453Z,11.42
2023-07-03T10:12:39.497Z,11.48
2023-07-03T10:15:13.403Z,11.38
2023-07-03T10:18:03.319Z,11.35
2023-07-03T10:20:39.397Z,11.28
2023-07-03T10:23:12.459Z,11.22
2023-07-03T10:25:55.884Z,11.16
2023-07-03T10:28:28.838Z,11.17
2023-07-03T10:31:05.191Z,11.16
2023-07-03T10:33:43.208Z,11.11
2023-07-03T10:36:17.954Z,11.24
2023-07-03T10:38:57.505Z,11.21
2023-07-03T10:41:29.097Z,11.18
2023-07-03T10:44:12.728Z,11.20
2023-07-03T10:47:09.004Z,11.16
2023-07-03T10:49:40.052Z,11.15
2023-07-03T10:52:27.661Z,11.14
2023-07-03T10:55:03.988Z,11.15
2023-07-03T10:57:55.248Z,11.10
2023-07-03T11:00:35.996Z,11.03
2023-07-03T11:03:21.798Z,11.13
2023-07-03T11:06:00.491Z,11.15
2023-07-03T11:08:41.075Z,11.15
2023-07-03T11:11:17.741Z,11.21
2023-07-03T11:13:59.645Z,11.14
2023-07-03T11:16:41.235Z,11.18
2023-07-03T11:24:46.534Z,11.18
2023-07-03T11:30:04.872Z,11.20
2023-07-03T11:32:37.484Z,11.16
2023-07-03T11:40:38.032Z,11.24
2023-07-03T11:43:36.168Z,11.19
2023-07-03T11:46:09.278Z,11.23
2023-07-03T11:48:40.807Z,11.25
2023-07-03T11:51:15.507Z,11.19
2023-07-03T11:54:28.916Z,11.18
2023-07-03T11:57:02.189Z,11.18
2023-07-03T11:59:36.070Z,11.21
2023-07-03T12:02:13.636Z,11.21
2023-07-03T12:04:49.930Z,11.17
2023-07-03T12:07:22.209Z,11.14
2023-07-03T12:09:52.606Z,11.14
2023-07-03T12:12:22.938Z,11.14
2023-07-03T12:14:58.989Z,11.16
2023-07-03T12:17:35.167Z,11.16
2023-07-03T12:20:21.171Z,11.14
2023-07-03T12:22:52.207Z,11.15
2023-07-03T12:25:20.779Z,11.13
2023-07-03T12:27:51.250Z,11.15
2023-07-03T12:30:32.569Z,11.17
2023-07-03T12:33:03.743Z,11.23
2023-07-03T12:35:45.114Z,11.17
2023-07-03T12:38:15.992Z,11.21
2023-07-03T12:40:47.288Z,11.19
2023-07-03T12:43:21.145Z,11.13
2023-07-03T12:45:54.464Z,11.13
2023-07-03T12:48:25.222Z,11.13
2023-07-03T12:50:59.124Z,11.17
2023-07-03T12:53:34.963Z,11.16
2023-07-03T12:56:09.332Z,11.16
2023-07-03T12:58:38.047Z,11.24
2023-07-03T13:01:09.368Z,11.26
2023-07-03T13:03:42.719Z,11.29
2023-07-03T13:06:22.177Z,11.33
2023-07-03T13:08:51.644Z,11.35
2023-07-03T13:11:43.040Z,11.44
2023-07-03T13:14:31.837Z,11.49
2023-07-03T13:17:03.491Z,11.52
2023-07-03T13:19:36.068Z,11.63
2023-07-03T13:22:12.202Z,11.64
2023-07-03T13:24:49.558Z,11.70
2023-07-03T13:27:37.242Z,11.68
2023-07-03T13:30:40.475Z,11.59
2023-07-03T13:33:12.754Z,11.62
2023-07-03T13:35:44.336Z,11.61
2023-07-03T13:38:21.322Z,11.59
2023-07-03T13:40:51.997Z,11.57
2023-07-03T13:43:28.890Z,11.56
2023-07-03T13:45:58.932Z,11.55
2023-07-03T13:48:29.174Z,11.52
2023-07-03T13:50:58.147Z,11.54
2023-07-03T13:53:28.654Z,11.50
2023-07-03T13:55:57.402Z,11.45
2023-07-03T13:58:26.238Z,11.37
2023-07-03T14:00:54.833Z,11.31
2023-07-03T14:03:23.617Z,11.31
2023-07-03T14:05:54.382Z,11.33
2023-07-03T14:08:23.195Z,11.32
2023-07-03T14:10:51.641Z,11.36
2023-07-03T14:13:20.383Z,11.45
2023-07-03T14:15:49.446Z,11.54
2023-07-03T14:18:19.983Z,11.74
2023-07-03T14:20:50.751Z,11.89
2023-07-03T14:23:19.801Z,11.92
2023-07-03T14:25:50.002Z,11.95
2023-07-03T14:28:19.217Z,11.94
2023-07-03T14:30:49.430Z,11.96
2023-07-03T14:33:18.806Z,11.98
2023-07-03T14:35:48.043Z,11.84
2023-07-03T14:38:17.098Z,11.71
2023-07-03T14:40:45.800Z,11.76
2023-07-03T14:43:14.480Z,11.75
2023-07-03T14:45:43.059Z,11.62
2023-07-03T14:48:12.865Z,11.61
2023-07-03T14:50:42.420Z,11.59
2023-07-03T14:53:11.059Z,11.57
2023-07-03T14:55:39.820Z,11.63
2023-07-03T14:58:12.632Z,11.72
2023-07-03T15:00:41.588Z,11.72
2023-07-03T15:03:11.100Z,11.65
2023-07-03T15:05:40.103Z,11.63
2023-07-03T15:08:08.842Z,11.52
2023-07-03T15:10:39.227Z,11.47
2023-07-03T15:13:08.271Z,11.47
2023-07-03T15:15:36.901Z,11.49
2023-07-03T15:18:07.227Z,11.56
2023-07-03T15:20:39.704Z,11.64
2023-07-03T15:23:08.582Z,11.65
2023-07-03T15:25:37.709Z,11.53
2023-07-03T15:28:06.489Z,11.36
2023-07-03T15:30:35.180Z,11.17
2023-07-03T15:33:03.926Z,11.08
2023-07-03T15:35:32.638Z,11.06
2023-07-03T15:38:01.205Z,11.04
2023-07-03T15:40:29.785Z,11.04
2023-07-03T15:42:58.396Z,11.13
2023-07-03T15:45:27.726Z,11.11
2023-07-03T15:47:56.347Z,11.07
2023-07-03T15:50:24.999Z,11.06
2023-07-03T15:52:58.191Z,11.09
2023-07-03T15:55:26.325Z,11.19
2023-07-03T15:57:54.769Z,11.17
2023-07-03T16:00:23.509Z,11.30
2023-07-03T16:02:52.158Z,11.30
2023-07-03T16:05:20.814Z,11.45
2023-07-03T16:07:49.461Z,11.45
2023-07-03T16:10:18.278Z,11.55
2023-07-03T16:12:46.949Z,11.54
2023-07-03T16:15:15.639Z,11.51
2023-07-03T16:17:44.216Z,11.57
2023-07-03T16:20:16.288Z,11.53
2023-07-03T16:22:47.239Z,11.52
2023-07-03T16:25:15.890Z,11.43
2023-07-03T16:27:44.524Z,11.39
2023-07-03T16:30:13.457Z,11.31
2023-07-03T16:32:42.164Z,11.26
2023-07-03T16:35:11.193Z,11.00
2023-07-03T16:37:40.042Z,10.85
2023-07-03T16:40:09.217Z,10.71
2023-07-03T16:42:37.991Z,10.72
2023-07-03T16:45:07.127Z,10.79
2023-07-03T16:47:35.817Z,10.82
2023-07-03T16:50:04.529Z,10.78
2023-07-03T16:52:32.970Z,10.91
2023-07-03T16:55:01.596Z,11.08
2023-07-03T16:57:30.578Z,11.22
2023-07-03T16:59:59.615Z,11.31
2023-07-03T17:02:28.232Z,11.41
2023-07-03T17:04:59.176Z,11.48
2023-07-03T17:07:27.822Z,11.77
2023-07-03T17:09:56.439Z,11.82
2023-07-03T17:12:25.183Z,11.95
2023-07-03T17:14:53.839Z,12.11
2023-07-03T17:17:22.502Z,12.19
2023-07-03T17:19:51.154Z,12.28
2023-07-03T17:22:21.016Z,12.59
2023-07-03T17:24:49.720Z,12.29
2023-07-03T17:27:18.321Z,12.06
2023-07-03T17:29:46.873Z,12.27
2023-07-03T17:32:16.481Z,12.48
2023-07-03T17:34:45.574Z,12.62
2023-07-03T17:37:14.344Z,12.88
2023-07-03T17:39:42.765Z,12.98
2023-07-03T17:42:11.399Z,13.26
2023-07-03T17:44:40.006Z,13.61
2023-07-03T17:47:08.727Z,13.43
2023-07-03T17:49:37.372Z,13.35
2023-07-03T17:52:06.071Z,13.04
2023-07-03T17:54:34.644Z,13.01
2023-07-03T17:57:03.256Z,13.04
2023-07-03T17:59:31.848Z,12.98
2023-07-03T18:02:00.518Z,13.00
2023-07-03T18:04:29.295Z,13.00
2023-07-03T18:06:57.325Z,12.96
2023-07-03T18:09:25.761Z,12.97
2023-07-03T18:11:54.374Z,12.91
2023-07-03T18:14:22.999Z,12.87
2023-07-03T18:16:51.736Z,12.80
2023-07-03T18:19:21.268Z,12.72
2023-07-03T18:21:50.016Z,12.66
2023-07-03T18:24:18.422Z,12.66
2023-07-03T18:26:47.030Z,12.66
2023-07-03T18:29:16.465Z,12.73
2023-07-03T18:31:45.276Z,12.68
2023-07-03T18:34:13.930Z,12.56
2023-07-03T18:36:42.683Z,12.50
2023-07-03T18:39:11.373Z,12.41
2023-07-03T18:41:40.017Z,12.33
2023-07-03T18:44:08.986Z,12.26
2023-07-03T18:46:37.863Z,12.18
2023-07-03T18:49:06.577Z,12.14
2023-07-03T18:51:34.995Z,12.07
2023-07-03T18:54:03.540Z,12.07
2023-07-03T18:56:32.225Z,12.07
2023-07-03T18:59:00.864Z,12.09
2023-07-03T19:01:29.544Z,12.16
2023-07-03T19:03:58.244Z,12.20
2023-07-03T19:06:26.928Z,12.28
2023-07-03T19:08:55.693Z,12.35
2023-07-03T19:11:25.115Z,12.40
2023-07-03T19:13:53.802Z,12.44
2023-07-03T19:16:22.456Z,12.46
2023-07-03T19:18:51.469Z,12.52
2023-07-03T19:21:20.056Z,12.54
2023-07-03T19:23:48.700Z,12.61
2023-07-03T19:26:17.451Z,12.61
2023-07-03T19:28:51.769Z,12.63
2023-07-03T19:31:20.612Z,12.71
2023-07-03T19:33:49.370Z,12.81
2023-07-03T19:36:22.221Z,12.78
2023-07-03T19:38:52.109Z,12.79
2023-07-03T19:41:20.762Z,12.85
2023-07-03T19:43:49.426Z,12.83
2023-07-03T19:46:18.102Z,12.76
2023-07-03T19:48:46.817Z,12.57
2023-07-03T19:51:15.626Z,12.50
2023-07-03T19:53:44.228Z,12.35
2023-07-03T19:56:20.996Z,12.37
2023-07-03T19:58:50.457Z,12.39
2023-07-03T20:01:20.295Z,12.37
2023-07-03T20:03:49.112Z,12.46
2023-07-03T20:06:23.418Z,12.44
2023-07-03T20:08:56.196Z,12.52
2023-07-03T20:11:27.230Z,12.50
2023-07-03T20:13:55.993Z,12.52
2023-07-03T20:16:25.337Z,12.36
2023-07-03T20:18:56.981Z,12.14
2023-07-03T20:21:25.646Z,12.24
2023-07-03T20:23:56.796Z,12.26
2023-07-03T20:26:29.265Z,12.27
2023-07-03T20:28:58.217Z,12.43
2023-07-03T20:31:27.073Z,12.38
2023-07-03T20:33:55.669Z,12.40
2023-07-03T20:36:24.286Z,12.44
2023-07-03T20:38:52.888Z,12.47
2023-07-03T20:41:22.184Z,12.47
2023-07-03T20:43:50.877Z,12.40
2023-07-03T20:46:23.316Z,12.35
2023-07-03T20:48:58.162Z,12.33
2023-07-03T20:51:34.087Z,12.35
2023-07-03T20:54:05.686Z,12.31
2023-07-03T20:56:39.283Z,12.26
2023-07-03T20:59:08.940Z,12.18
2023-07-03T21:01:39.549Z,12.12
2023-07-03T21:04:09.984Z,12.15
2023-07-03T21:06:40.105Z,12.18
2023-07-03T21:09:08.973Z,12.23
2023-07-03T21:11:41.569Z,12.28
2023-07-03T21:14:12.646Z,12.24
2023-07-03T21:16:42.519Z,12.33
2023-07-03T21:19:14.066Z,12.35
2023-07-03T21:21:43.006Z,12.56
2023-07-03T21:24:13.919Z,12.67
2023-07-03T21:26:42.729Z,12.74
2023-07-03T21:29:11.376Z,12.93
2023-07-03T21:31:40.648Z,12.87
2023-07-03T21:34:09.333Z,13.07
2023-07-03T21:36:38.217Z,13.12
2023-07-03T21:39:07.513Z,13.20
2023-07-03T21:41:38.303Z,13.23
2023-07-03T21:44:18.127Z,13.38
2023-07-03T21:46:47.072Z,13.39
2023-07-03T21:49:17.778Z,13.62
2023-07-03T21:51:46.662Z,13.62
2023-07-03T21:54:15.402Z,13.74
2023-07-03T21:56:44.594Z,13.94
2023-07-03T21:59:14.072Z,14.16
2023-07-03T22:01:44.292Z,14.53
2023-07-03T22:04:13.236Z,14.70
2023-07-03T22:06:42.022Z,14.97
2023-07-03T22:09:10.938Z,15.30
2023-07-03T22:11:40.214Z,15.27
2023-07-03T22:14:08.887Z,15.38
2023-07-03T22:16:37.958Z,14.89
2023-07-03T22:19:07.064Z,15.17
2023-07-03T22:21:36.847Z,14.77
2023-07-03T22:24:05.663Z,14.76
2023-07-03T22:26:33.780Z,14.62
2023-07-03T22:29:02.471Z,14.61
2023-07-03T22:31:31.285Z,14.33
2023-07-03T22:33:59.923Z,14.23
2023-07-03T22:36:28.575Z,13.98
2023-07-03T22:38:57.269Z,13.92
2023-07-03T22:41:26.006Z,13.81
2023-07-03T22:43:54.539Z,13.62
2023-07-03T22:46:23.337Z,13.32
2023-07-03T22:48:55.515Z,13.27
2023-07-03T22:51:24.152Z,13.27
2023-07-03T22:53:52.733Z,13.42
2023-07-03T22:56:21.559Z,13.60
2023-07-03T22:58:50.171Z,13.86
2023-07-03T23:01:18.881Z,14.12
2023-07-03T23:03:47.638Z,14.36
2023-07-03T23:06:15.642Z,14.59
2023-07-03T23:08:45.602Z,14.64
2023-07-03T23:11:14.358Z,14.99
2023-07-03T23:13:43.039Z,15.05
2023-07-03T23:16:11.778Z,15.49
2023-07-03T23:18:43.658Z,15.27
2023-07-03T23:21:18.014Z,15.50
2023-07-03T23:23:46.878Z,15.65
2023-07-03T23:26:17.822Z,15.69
2023-07-03T23:28:47.444Z,15.67
2023-07-03T23:31:19.230Z,15.64
2023-07-03T23:33:50.471Z,16.05
2023-07-03T23:36:25.029Z,16.07
2023-07-03T23:38:54.594Z,16.18
2023-07-03T23:41:23.533Z,16.31
2023-07-03T23:43:52.436Z,16.40
2023-07-03T23:46:23.498Z,16.50
2023-07-03T23:48:52.225Z,16.56
2023-07-03T23:51:20.895Z,16.50
2023-07-03T23:53:50.063Z,16.47
2023-07-03T23:56:20.659Z,16.67
2023-07-03T23:58:50.698Z,16.73
